sensor_id;sensor_type;location;lat;lon;timestamp;P1;durP1;ratioP1;P2;durP2;ratioP2
16878;SDS011;8556;52.218;9.884;2023-02-12T00:01:14;16.97;;;7.93;;
16878;SDS011;8556;52.218;9.884;2023-02-12T00:03:42;14.53;;;8.50;;
16878;SDS011;8556;52.218;9.884;2023-02-12T00:06:09;15.03;;;8.33;;
16878;SDS011;8556;52.218;9.884;2023-02-12T00:08:36;14.13;;;8.13;;
16878;SDS011;8556;52.218;9.884;2023-02-12T00:11:08;15.13;;;7.90;;
16878;SDS011;8556;52.218;9.884;2023-02-12T00:13:36;13.97;;;8.20;;
16878;SDS011;8556;52.218;9.884;2023-02-12T00:16:03;14.47;;;7.30;;
16878;SDS011;8556;52.218;9.884;2023-02-12T00:18:33;16.67;;;7.17;;
16878;SDS011;8556;52.218;9.884;2023-02-12T00:21:00;13.40;;;7.87;;
16878;SDS011;8556;52.218;9.884;2023-02-12T00:23:28;13.87;;;7.23;;
16878;SDS011;8556;52.218;9.884;2023-02-12T00:25:54;15.13;;;7.73;;
16878;SDS011;8556;52.218;9.884;2023-02-12T00:28:21;15.70;;;8.17;;
16878;SDS011;8556;52.218;9.884;2023-02-12T00:30:48;13.67;;;7.70;;
16878;SDS011;8556;52.218;9.884;2023-02-12T00:33:15;12.77;;;8.00;;
16878;SDS011;8556;52.218;9.884;2023-02-12T00:35:43;14.00;;;7.23;;
16878;SDS011;8556;52.218;9.884;2023-02-12T00:38:10;16.03;;;7.70;;
16878;SDS011;8556;52.218;9.884;2023-02-12T00:40:37;12.83;;;6.67;;
16878;SDS011;8556;52.218;9.884;2023-02-12T00:43:04;16.03;;;7.57;;
16878;SDS011;8556;52.218;9.884;2023-02-12T00:45:31;16.47;;;7.83;;
16878;SDS011;8556;52.218;9.884;2023-02-12T00:47:57;15.50;;;8.20;;
16878;SDS011;8556;52.218;9.884;2023-02-12T00:50:24;20.27;;;8.80;;
16878;SDS011;8556;52.218;9.884;2023-02-12T00:52:52;14.97;;;8.13;;
16878;SDS011;8556;52.218;9.884;2023-02-12T00:55:19;13.80;;;8.13;;
16878;SDS011;8556;52.218;9.884;2023-02-12T00:57:46;14.87;;;7.70;;
16878;SDS011;8556;52.218;9.884;2023-02-12T01:00:14;14.53;;;7.43;;
16878;SDS011;8556;52.218;9.884;2023-02-12T01:02:41;17.53;;;8.63;;
16878;SDS011;8556;52.218;9.884;2023-02-12T01:05:08;14.87;;;8.33;;
16878;SDS011;8556;52.218;9.884;2023-02-12T01:07:35;20.70;;;8.43;;
16878;SDS011;8556;52.218;9.884;2023-02-12T01:10:04;15.00;;;7.93;;
16878;SDS011;8556;52.218;9.884;2023-02-12T01:12:32;20.97;;;9.40;;
16878;SDS011;8556;52.218;9.884;2023-02-12T01:14:59;19.13;;;9.03;;
16878;SDS011;8556;52.218;9.884;2023-02-12T01:17:26;15.53;;;9.27;;
16878;SDS011;8556;52.218;9.884;2023-02-12T01:19:55;19.03;;;9.50;;
16878;SDS011;8556;52.218;9.884;2023-02-12T01:22:22;19.17;;;9.30;;
16878;SDS011;8556;52.218;9.884;2023-02-12T01:24:49;15.70;;;9.30;;
16878;SDS011;8556;52.218;9.884;2023-02-12T01:27:17;20.93;;;9.63;;
16878;SDS011;8556;52.218;9.884;2023-02-12T01:29:44;18.83;;;9.40;;
16878;SDS011;8556;52.218;9.884;2023-02-12T01:32:11;21.20;;;9.90;;
16878;SDS011;8556;52.218;9.884;2023-02-12T01:34:38;21.70;;;9.57;;
16878;SDS011;8556;52.218;9.884;2023-02-12T01:37:05;18.63;;;10.20;;
16878;SDS011;8556;52.218;9.884;2023-02-12T01:39:32;16.60;;;8.97;;
16878;SDS011;8556;52.218;9.884;2023-02-12T01:42:00;23.37;;;10.97;;
16878;SDS011;8556;52.218;9.884;2023-02-12T01:44:29;17.10;;;10.00;;
16878;SDS011;8556;52.218;9.884;2023-02-12T01:46:57;19.00;;;9.77;;
16878;SDS011;8556;52.218;9.884;2023-02-12T01:49:27;17.30;;;9.73;;
16878;SDS011;8556;52.218;9.884;2023-02-12T01:51:57;20.00;;;10.17;;
16878;SDS011;8556;52.218;9.884;2023-02-12T01:54:27;16.93;;;9.77;;
16878;SDS011;8556;52.218;9.884;2023-02-12T01:56:55;19.07;;;9.17;;
16878;SDS011;8556;52.218;9.884;2023-02-12T01:59:22;16.50;;;9.67;;
16878;SDS011;8556;52.218;9.884;2023-02-12T02:01:51;18.33;;;9.60;;
16878;SDS011;8556;52.218;9.884;2023-02-12T02:04:20;17.63;;;9.70;;
16878;SDS011;8556;52.218;9.884;2023-02-12T02:06:55;16.10;;;9.23;;
16878;SDS011;8556;52.218;9.884;2023-02-12T02:09:23;18.73;;;8.77;;
16878;SDS011;8556;52.218;9.884;2023-02-12T02:11:51;15.63;;;9.27;;
16878;SDS011;8556;52.218;9.884;2023-02-12T02:14:35;17.23;;;9.20;;
16878;SDS011;8556;52.218;9.884;2023-02-12T02:17:11;15.73;;;9.23;;
16878;SDS011;8556;52.218;9.884;2023-02-12T02:23:04;19.23;;;8.90;;
16878;SDS011;8556;52.218;9.884;2023-02-12T02:28:45;18.47;;;9.27;;
16878;SDS011;8556;52.218;9.884;2023-02-12T02:31:31;19.43;;;10.00;;
16878;SDS011;8556;52.218;9.884;2023-02-12T02:34:07;16.90;;;9.53;;
16878;SDS011;8556;52.218;9.884;2023-02-12T02:36:39;15.30;;;8.87;;
16878;SDS011;8556;52.218;9.884;2023-02-12T02:39:12;22.87;;;9.97;;
16878;SDS011;8556;52.218;9.884;2023-02-12T02:41:45;19.23;;;9.77;;
16878;SDS011;8556;52.218;9.884;2023-02-12T02:44:16;19.20;;;9.87;;
16878;SDS011;8556;52.218;9.884;2023-02-12T02:46:48;17.67;;;9.50;;
16878;SDS011;8556;52.218;9.884;2023-02-12T02:49:20;16.97;;;9.77;;
16878;SDS011;8556;52.218;9.884;2023-02-12T02:51:50;15.50;;;9.13;;
16878;SDS011;8556;52.218;9.884;2023-02-12T02:54:20;18.17;;;10.20;;
16878;SDS011;8556;52.218;9.884;2023-02-12T02:56:54;17.43;;;9.90;;
16878;SDS011;8556;52.218;9.884;2023-02-12T02:59:25;17.53;;;10.17;;
16878;SDS011;8556;52.218;9.884;2023-02-12T03:01:59;14.90;;;9.03;;
16878;SDS011;8556;52.218;9.884;2023-02-12T03:04:30;15.93;;;8.93;;
16878;SDS011;8556;52.218;9.884;2023-02-12T03:07:02;13.37;;;8.63;;
16878;SDS011;8556;52.218;9.884;2023-02-12T03:09:34;16.83;;;9.33;;
16878;SDS011;8556;52.218;9.884;2023-02-12T03:12:04;16.80;;;9.13;;
16878;SDS011;8556;52.218;9.884;2023-02-12T03:14:36;17.10;;;9.67;;
16878;SDS011;8556;52.218;9.884;2023-02-12T03:17:09;15.83;;;9.00;;
16878;SDS011;8556;52.218;9.884;2023-02-12T03:19:42;18.80;;;9.97;;
16878;SDS011;8556;52.218;9.884;2023-02-12T03:22:13;16.57;;;8.30;;
16878;SDS011;8556;52.218;9.884;2023-02-12T03:24:44;18.53;;;9.27;;
16878;SDS011;8556;52.218;9.884;2023-02-12T03:27:15;20.23;;;9.60;;
16878;SDS011;8556;52.218;9.884;2023-02-12T03:29:45;17.63;;;10.13;;
16878;SDS011;8556;52.218;9.884;2023-02-12T03:32:17;18.87;;;10.17;;
16878;SDS011;8556;52.218;9.884;2023-02-12T03:34:52;16.87;;;9.57;;
16878;SDS011;8556;52.218;9.884;2023-02-12T03:37:28;17.23;;;9.60;;
16878;SDS011;8556;52.218;9.884;2023-02-12T03:39:59;18.50;;;11.20;;
16878;SDS011;8556;52.218;9.884;2023-02-12T03:42:33;17.40;;;10.73;;
16878;SDS011;8556;52.218;9.884;2023-02-12T03:45:06;19.43;;;10.60;;
16878;SDS011;8556;52.218;9.884;2023-02-12T03:47:42;21.23;;;11.87;;
16878;SDS011;8556;52.218;9.884;2023-02-12T03:50:14;20.73;;;11.40;;
16878;SDS011;8556;52.218;9.884;2023-02-12T03:52:45;22.17;;;12.27;;
16878;SDS011;8556;52.218;9.884;2023-02-12T03:55:14;23.27;;;11.83;;
16878;SDS011;8556;52.218;9.884;2023-02-12T03:57:43;23.37;;;10.60;;
16878;SDS011;8556;52.218;9.884;2023-02-12T04:00:15;20.10;;;10.50;;
16878;SDS011;8556;52.218;9.884;2023-02-12T04:02:45;21.90;;;11.03;;
16878;SDS011;8556;52.218;9.884;2023-02-12T04:05:16;19.30;;;11.13;;
16878;SDS011;8556;52.218;9.884;2023-02-12T04:07:44;20.40;;;10.70;;
16878;SDS011;8556;52.218;9.884;2023-02-12T04:10:12;17.77;;;11.00;;
16878;SDS011;8556;52.218;9.884;2023-02-12T04:12:39;20.43;;;11.17;;
16878;SDS011;8556;52.218;9.884;2023-02-12T04:15:18;19.40;;;11.07;;
16878;SDS011;8556;52.218;9.884;2023-02-12T04:18:10;19.63;;;10.03;;
16878;SDS011;8556;52.218;9.884;2023-02-12T04:20:47;19.40;;;9.60;;
16878;SDS011;8556;52.218;9.884;2023-02-12T04:23:28;22.67;;;11.80;;
16878;SDS011;8556;52.218;9.884;2023-02-12T04:26:08;19.30;;;10.40;;
16878;SDS011;8556;52.218;9.884;2023-02-12T04:28:42;18.43;;;10.97;;
16878;SDS011;8556;52.218;9.884;2023-02-12T04:31:16;22.27;;;11.23;;
16878;SDS011;8556;52.218;9.884;2023-02-12T04:33:53;22.23;;;10.77;;
16878;SDS011;8556;52.218;9.884;2023-02-12T04:36:30;20.80;;;11.13;;
16878;SDS011;8556;52.218;9.884;2023-02-12T04:39:00;20.80;;;11.20;;
16878;SDS011;8556;52.218;9.884;2023-02-12T04:41:30;20.67;;;10.63;;
16878;SDS011;8556;52.218;9.884;2023-02-12T04:43:57;22.00;;;11.73;;
16878;SDS011;8556;52.218;9.884;2023-02-12T04:46:37;20.77;;;11.67;;
16878;SDS011;8556;52.218;9.884;2023-02-12T04:49:08;22.37;;;11.97;;
16878;SDS011;8556;52.218;9.884;2023-02-12T04:51:39;22.43;;;12.37;;
16878;SDS011;8556;52.218;9.884;2023-02-12T04:54:05;21.57;;;11.40;;
16878;SDS011;8556;52.218;9.884;2023-02-12T04:56:32;22.83;;;11.83;;
16878;SDS011;8556;52.218;9.884;2023-02-12T04:59:00;22.23;;;11.63;;
16878;SDS011;8556;52.218;9.884;2023-02-12T05:01:27;20.27;;;12.13;;
16878;SDS011;8556;52.218;9.884;2023-02-12T05:04:00;19.97;;;11.43;;
16878;SDS011;8556;52.218;9.884;2023-02-12T05:06:28;23.03;;;12.30;;
16878;SDS011;8556;52.218;9.884;2023-02-12T05:08:55;22.67;;;11.13;;
16878;SDS011;8556;52.218;9.884;2023-02-12T05:11:22;23.43;;;11.70;;
16878;SDS011;8556;52.218;9.884;2023-02-12T05:13:49;22.93;;;12.43;;
16878;SDS011;8556;52.218;9.884;2023-02-12T05:16:17;20.03;;;11.47;;
16878;SDS011;8556;52.218;9.884;2023-02-12T05:18:44;20.47;;;11.17;;
16878;SDS011;8556;52.218;9.884;2023-02-12T05:21:11;23.47;;;12.67;;
16878;SDS011;8556;52.218;9.884;2023-02-12T05:23:42;21.63;;;11.77;;
16878;SDS011;8556;52.218;9.884;2023-02-12T05:26:10;19.07;;;11.00;;
16878;SDS011;8556;52.218;9.884;2023-02-12T05:28:38;20.33;;;11.23;;
16878;SDS011;8556;52.218;9.884;2023-02-12T05:31:07;19.17;;;10.60;;
16878;SDS011;8556;52.218;9.884;2023-02-12T05:33:46;20.23;;;10.93;;
16878;SDS011;8556;52.218;9.884;2023-02-12T05:36:14;20.03;;;10.87;;
16878;SDS011;8556;52.218;9.884;2023-02-12T05:38:43;21.20;;;11.73;;
16878;SDS011;8556;52.218;9.884;2023-02-12T05:41:11;19.67;;;11.03;;
16878;SDS011;8556;52.218;9.884;2023-02-12T05:43:39;25.77;;;12.80;;
16878;SDS011;8556;52.218;9.884;2023-02-12T05:46:06;21.43;;;11.77;;
16878;SDS011;8556;52.218;9.884;2023-02-12T05:48:34;18.83;;;11.27;;
16878;SDS011;8556;52.218;9.884;2023-02-12T05:51:02;21.97;;;12.47;;
16878;SDS011;8556;52.218;9.884;2023-02-12T05:53:30;20.60;;;11.77;;
16878;SDS011;8556;52.218;9.884;2023-02-12T05:56:07;21.97;;;12.07;;
16878;SDS011;8556;52.218;9.884;2023-02-12T05:58:34;20.93;;;11.93;;
16878;SDS011;8556;52.218;9.884;2023-02-12T06:01:02;22.07;;;12.00;;
16878;SDS011;8556;52.218;9.884;2023-02-12T06:03:34;19.97;;;11.50;;
16878;SDS011;8556;52.218;9.884;2023-02-12T06:06:00;19.37;;;11.57;;
16878;SDS011;8556;52.218;9.884;2023-02-12T06:08:27;23.73;;;12.63;;
16878;SDS011;8556;52.218;9.884;2023-02-12T06:10:54;22.40;;;12.33;;
16878;SDS011;8556;52.218;9.884;2023-02-12T06:13:27;20.37;;;12.73;;
16878;SDS011;8556;52.218;9.884;2023-02-12T06:15:54;22.30;;;10.97;;
16878;SDS011;8556;52.218;9.884;2023-02-12T06:18:21;20.87;;;11.83;;
16878;SDS011;8556;52.218;9.884;2023-02-12T06:20:48;23.10;;;12.10;;
16878;SDS011;8556;52.218;9.884;2023-02-12T06:23:15;22.97;;;12.57;;
16878;SDS011;8556;52.218;9.884;2023-02-12T06:25:42;25.20;;;12.77;;
16878;SDS011;8556;52.218;9.884;2023-02-12T06:28:08;22.23;;;12.07;;
16878;SDS011;8556;52.218;9.884;2023-02-12T06:30:36;21.33;;;11.97;;
16878;SDS011;8556;52.218;9.884;2023-02-12T06:33:04;23.57;;;12.60;;
16878;SDS011;8556;52.218;9.884;2023-02-12T06:35:33;26.17;;;12.07;;
16878;SDS011;8556;52.218;9.884;2023-02-12T06:38:00;23.23;;;13.20;;
16878;SDS011;8556;52.218;9.884;2023-02-12T06:40:28;24.30;;;12.67;;
16878;SDS011;8556;52.218;9.884;2023-02-12T06:42:56;21.27;;;12.53;;
16878;SDS011;8556;52.218;9.884;2023-02-12T06:45:31;23.57;;;13.47;;
16878;SDS011;8556;52.218;9.884;2023-02-12T06:48:01;22.53;;;12.47;;
16878;SDS011;8556;52.218;9.884;2023-02-12T06:50:28;22.10;;;12.73;;
16878;SDS011;8556;52.218;9.884;2023-02-12T06:52:56;24.13;;;13.13;;
16878;SDS011;8556;52.218;9.884;2023-02-12T06:55:23;23.90;;;12.67;;
16878;SDS011;8556;52.218;9.884;2023-02-12T06:57:50;31.23;;;14.07;;
16878;SDS011;8556;52.218;9.884;2023-02-12T07:00:17;25.30;;;14.47;;
16878;SDS011;8556;52.218;9.884;2023-02-12T07:02:50;24.10;;;13.73;;
16878;SDS011;8556;52.218;9.884;2023-02-12T07:05:19;24.07;;;11.80;;
16878;SDS011;8556;52.218;9.884;2023-02-12T07:07:46;23.27;;;12.10;;
16878;SDS011;8556;52.218;9.884;2023-02-12T07:10:13;22.73;;;12.37;;
16878;SDS011;8556;52.218;9.884;2023-02-12T07:12:40;26.47;;;13.47;;
16878;SDS011;8556;52.218;9.884;2023-02-12T07:15:07;21.93;;;11.97;;
16878;SDS011;8556;52.218;9.884;2023-02-12T07:17:34;23.27;;;12.00;;
16878;SDS011;8556;52.218;9.884;2023-02-12T07:20:01;21.67;;;12.20;;
16878;SDS011;8556;52.218;9.884;2023-02-12T07:22:29;22.20;;;12.50;;
16878;SDS011;8556;52.218;9.884;2023-02-12T07:24:56;22.20;;;11.80;;
16878;SDS011;8556;52.218;9.884;2023-02-12T07:27:23;21.43;;;11.83;;
16878;SDS011;8556;52.218;9.884;2023-02-12T07:29:50;22.23;;;12.53;;
16878;SDS011;8556;52.218;9.884;2023-02-12T07:32:17;21.83;;;12.33;;
16878;SDS011;8556;52.218;9.884;2023-02-12T07:34:44;20.70;;;11.83;;
16878;SDS011;8556;52.218;9.884;2023-02-12T07:37:11;25.77;;;13.30;;
16878;SDS011;8556;52.218;9.884;2023-02-12T07:39:39;22.60;;;12.50;;
16878;SDS011;8556;52.218;9.884;2023-02-12T07:42:06;22.03;;;12.70;;
16878;SDS011;8556;52.218;9.884;2023-02-12T07:44:33;23.33;;;12.27;;
16878;SDS011;8556;52.218;9.884;2023-02-12T07:47:00;25.50;;;12.50;;
16878;SDS011;8556;52.218;9.884;2023-02-12T07:49:29;23.83;;;12.60;;
16878;SDS011;8556;52.218;9.884;2023-02-12T07:51:56;19.83;;;11.90;;
16878;SDS011;8556;52.218;9.884;2023-02-12T07:54:23;22.00;;;12.23;;
16878;SDS011;8556;52.218;9.884;2023-02-12T07:56:52;21.40;;;11.00;;
16878;SDS011;8556;52.218;9.884;2023-02-12T07:59:18;24.77;;;13.07;;
16878;SDS011;8556;52.218;9.884;2023-02-12T08:01:46;22.87;;;11.83;;
16878;SDS011;8556;52.218;9.884;2023-02-12T08:04:14;20.53;;;12.27;;
16878;SDS011;8556;52.218;9.884;2023-02-12T08:06:43;22.03;;;11.33;;
16878;SDS011;8556;52.218;9.884;2023-02-12T08:09:12;23.70;;;11.27;;
16878;SDS011;8556;52.218;9.884;2023-02-12T08:11:41;21.10;;;12.60;;
16878;SDS011;8556;52.218;9.884;2023-02-12T08:14:11;23.20;;;12.27;;
16878;SDS011;8556;52.218;9.884;2023-02-12T08:16:39;19.87;;;11.73;;
16878;SDS011;8556;52.218;9.884;2023-02-12T08:19:07;23.87;;;13.40;;
16878;SDS011;8556;52.218;9.884;2023-02-12T08:21:34;27.77;;;12.77;;
16878;SDS011;8556;52.218;9.884;2023-02-12T08:24:01;22.93;;;13.60;;
16878;SDS011;8556;52.218;9.884;2023-02-12T08:26:30;24.67;;;13.13;;
16878;SDS011;8556;52.218;9.884;2023-02-12T08:28:58;23.50;;;12.70;;
16878;SDS011;8556;52.218;9.884;2023-02-12T08:31:29;22.63;;;12.40;;
16878;SDS011;8556;52.218;9.884;2023-02-12T08:33:58;25.23;;;13.30;;
16878;SDS011;8556;52.218;9.884;2023-02-12T08:36:26;26.97;;;12.73;;
16878;SDS011;8556;52.218;9.884;2023-02-12T08:38:56;22.03;;;13.17;;
16878;SDS011;8556;52.218;9.884;2023-02-12T08:41:24;22.27;;;12.73;;
16878;SDS011;8556;52.218;9.884;2023-02-12T08:43:53;27.40;;;15.43;;
16878;SDS011;8556;52.218;9.884;2023-02-12T08:46:22;24.33;;;13.47;;
16878;SDS011;8556;52.218;9.884;2023-02-12T08:48:53;22.60;;;12.13;;
16878;SDS011;8556;52.218;9.884;2023-02-12T08:51:22;23.43;;;13.23;;
16878;SDS011;8556;52.218;9.884;2023-02-12T08:53:51;24.93;;;13.93;;
16878;SDS011;8556;52.218;9.884;2023-02-12T08:56:20;26.17;;;14.20;;
16878;SDS011;8556;52.218;9.884;2023-02-12T08:58:47;24.07;;;13.03;;
16878;SDS011;8556;52.218;9.884;2023-02-12T09:01:16;27.00;;;14.73;;
16878;SDS011;8556;52.218;9.884;2023-02-12T09:03:46;23.53;;;13.40;;
16878;SDS011;8556;52.218;9.884;2023-02-12T09:06:15;25.90;;;14.57;;
16878;SDS011;8556;52.218;9.884;2023-02-12T09:08:44;25.67;;;14.37;;
16878;SDS011;8556;52.218;9.884;2023-02-12T09:11:12;26.47;;;14.97;;
16878;SDS011;8556;52.218;9.884;2023-02-12T09:13:41;32.37;;;15.73;;
16878;SDS011;8556;52.218;9.884;2023-02-12T09:16:08;30.53;;;17.23;;
16878;SDS011;8556;52.218;9.884;2023-02-12T09:18:36;31.30;;;16.33;;
16878;SDS011;8556;52.218;9.884;2023-02-12T09:21:04;34.83;;;17.10;;
16878;SDS011;8556;52.218;9.884;2023-02-12T09:23:33;36.13;;;16.70;;
16878;SDS011;8556;52.218;9.884;2023-02-12T09:28:32;34.37;;;16.27;;
16878;SDS011;8556;52.218;9.884;2023-02-12T09:31:03;32.13;;;16.80;;
16878;SDS011;8556;52.218;9.884;2023-02-12T09:33:30;33.83;;;16.47;;
16878;SDS011;8556;52.218;9.884;2023-02-12T09:35:59;30.17;;;15.20;;
16878;SDS011;8556;52.218;9.884;2023-02-12T09:38:29;29.00;;;15.43;;
16878;SDS011;8556;52.218;9.884;2023-02-12T09:43:54;30.23;;;16.10;;
16878;SDS011;8556;52.218;9.884;2023-02-12T09:46:26;29.93;;;14.23;;
16878;SDS011;8556;52.218;9.884;2023-02-12T09:48:59;29.90;;;15.20;;
16878;SDS011;8556;52.218;9.884;2023-02-12T09:51:32;28.97;;;15.27;;
16878;SDS011;8556;52.218;9.884;2023-02-12T09:54:02;26.47;;;14.03;;
16878;SDS011;8556;52.218;9.884;2023-02-12T09:56:33;24.83;;;13.53;;
16878;SDS011;8556;52.218;9.884;2023-02-12T09:59:03;24.47;;;12.80;;
16878;SDS011;8556;52.218;9.884;2023-02-12T10:01:32;28.90;;;14.03;;
16878;SDS011;8556;52.218;9.884;2023-02-12T10:03:59;23.23;;;13.43;;
16878;SDS011;8556;52.218;9.884;2023-02-12T10:06:27;24.47;;;13.63;;
16878;SDS011;8556;52.218;9.884;2023-02-12T10:11:48;22.27;;;11.50;;
16878;SDS011;8556;52.218;9.884;2023-02-12T10:14:25;22.83;;;12.13;;
16878;SDS011;8556;52.218;9.884;2023-02-12T10:17:00;21.73;;;10.70;;
16878;SDS011;8556;52.218;9.884;2023-02-12T10:19:37;19.70;;;10.37;;
16878;SDS011;8556;52.218;9.884;2023-02-12T10:22:20;24.03;;;11.60;;
16878;SDS011;8556;52.218;9.884;2023-02-12T10:25:01;20.90;;;11.67;;
16878;SDS011;8556;52.218;9.884;2023-02-12T10:27:37;20.93;;;10.97;;
16878;SDS011;8556;52.218;9.884;2023-02-12T10:30:13;22.47;;;10.90;;
16878;SDS011;8556;52.218;9.884;2023-02-12T10:32:43;20.77;;;11.03;;
16878;SDS011;8556;52.218;9.884;2023-02-12T10:35:14;20.67;;;10.53;;
16878;SDS011;8556;52.218;9.884;2023-02-12T10:37:42;20.63;;;9.90;;
16878;SDS011;8556;52.218;9.884;2023-02-12T10:40:15;17.57;;;9.43;;
16878;SDS011;8556;52.218;9.884;2023-02-12T10:42:47;18.67;;;9.97;;
16878;SDS011;8556;52.218;9.884;2023-02-12T10:45:16;16.70;;;8.73;;
16878;SDS011;8556;52.218;9.884;2023-02-12T10:47:45;15.83;;;8.90;;
16878;SDS011;8556;52.218;9.884;2023-02-12T10:50:16;16.50;;;8.37;;
16878;SDS011;8556;52.218;9.884;2023-02-12T10:52:52;17.10;;;9.37;;
16878;SDS011;8556;52.218;9.884;2023-02-12T10:55:25;16.70;;;8.97;;
16878;SDS011;8556;52.218;9.884;2023-02-12T10:57:55;16.13;;;9.60;;
16878;SDS011;8556;52.218;9.884;2023-02-12T11:00:24;15.80;;;9.33;;
16878;SDS011;8556;52.218;9.884;2023-02-12T11:03:01;15.70;;;9.20;;
16878;SDS011;8556;52.218;9.884;2023-02-12T11:05:31;15.63;;;9.13;;
16878;SDS011;8556;52.218;9.884;2023-02-12T11:08:00;15.03;;;8.57;;
16878;SDS011;8556;52.218;9.884;2023-02-12T11:10:27;15.83;;;8.67;;
16878;SDS011;8556;52.218;9.884;2023-02-12T11:12:59;14.43;;;9.03;;
16878;SDS011;8556;52.218;9.884;2023-02-12T11:15:29;15.70;;;9.60;;
16878;SDS011;8556;52.218;9.884;2023-02-12T11:18:00;15.40;;;8.77;;
16878;SDS011;8556;52.218;9.884;2023-02-12T11:20:31;15.47;;;8.03;;
16878;SDS011;8556;52.218;9.884;2023-02-12T11:23:04;15.20;;;7.50;;
16878;SDS011;8556;52.218;9.884;2023-02-12T11:25:33;13.47;;;7.83;;
16878;SDS011;8556;52.218;9.884;2023-02-12T11:28:03;13.80;;;7.37;;
16878;SDS011;8556;52.218;9.884;2023-02-12T11:30:41;13.40;;;7.60;;
16878;SDS011;8556;52.218;9.884;2023-02-12T11:33:15;12.43;;;7.77;;
16878;SDS011;8556;52.218;9.884;2023-02-12T11:35:47;12.63;;;6.93;;
16878;SDS011;8556;52.218;9.884;2023-02-12T11:38:17;13.33;;;7.23;;
16878;SDS011;8556;52.218;9.884;2023-02-12T11:40:51;12.83;;;7.67;;
16878;SDS011;8556;52.218;9.884;2023-02-12T11:43:23;13.50;;;7.47;;
16878;SDS011;8556;52.218;9.884;2023-02-12T11:45:52;12.60;;;7.23;;
16878;SDS011;8556;52.218;9.884;2023-02-12T11:48:22;13.47;;;7.90;;
16878;SDS011;8556;52.218;9.884;2023-02-12T11:50:53;11.57;;;7.20;;
16878;SDS011;8556;52.218;9.884;2023-02-12T11:53:23;11.37;;;7.23;;
16878;SDS011;8556;52.218;9.884;2023-02-12T11:55:54;12.07;;;7.27;;
16878;SDS011;8556;52.218;9.884;2023-02-12T11:58:25;12.47;;;7.50;;
16878;SDS011;8556;52.218;9.884;2023-02-12T12:00:53;11.77;;;6.90;;
16878;SDS011;8556;52.218;9.884;2023-02-12T12:03:26;11.20;;;6.63;;
16878;SDS011;8556;52.218;9.884;2023-02-12T12:06:00;13.23;;;7.37;;
16878;SDS011;8556;52.218;9.884;2023-02-12T12:08:33;12.27;;;7.03;;
16878;SDS011;8556;52.218;9.884;2023-02-12T12:11:04;14.30;;;6.97;;
16878;SDS011;8556;52.218;9.884;2023-02-12T12:13:40;11.73;;;6.63;;
16878;SDS011;8556;52.218;9.884;2023-02-12T12:16:13;11.77;;;6.83;;
16878;SDS011;8556;52.218;9.884;2023-02-12T12:19:04;11.97;;;6.87;;
16878;SDS011;8556;52.218;9.884;2023-02-12T12:21:54;10.27;;;6.47;;
16878;SDS011;8556;52.218;9.884;2023-02-12T12:24:27;7.83;;;5.27;;
16878;SDS011;8556;52.218;9.884;2023-02-12T12:27:02;11.77;;;7.47;;
16878;SDS011;8556;52.218;9.884;2023-02-12T12:29:50;9.70;;;6.67;;
16878;SDS011;8556;52.218;9.884;2023-02-12T12:32:20;9.83;;;5.90;;
16878;SDS011;8556;52.218;9.884;2023-02-12T12:34:49;10.93;;;5.83;;
16878;SDS011;8556;52.218;9.884;2023-02-12T12:37:28;8.77;;;5.43;;
16878;SDS011;8556;52.218;9.884;2023-02-12T12:40:03;10.67;;;6.40;;
16878;SDS011;8556;52.218;9.884;2023-02-12T12:42:55;9.67;;;6.40;;
16878;SDS011;8556;52.218;9.884;2023-02-12T12:48:32;12.33;;;7.17;;
16878;SDS011;8556;52.218;9.884;2023-02-12T12:51:14;11.87;;;7.57;;
16878;SDS011;8556;52.218;9.884;2023-02-12T12:53:54;11.53;;;7.33;;
16878;SDS011;8556;52.218;9.884;2023-02-12T12:56:34;14.23;;;8.23;;
16878;SDS011;8556;52.218;9.884;2023-02-12T13:02:35;13.27;;;8.30;;
16878;SDS011;8556;52.218;9.884;2023-02-12T13:08:22;12.23;;;7.80;;
16878;SDS011;8556;52.218;9.884;2023-02-12T13:10:59;13.10;;;8.77;;
16878;SDS011;8556;52.218;9.884;2023-02-12T13:13:35;13.90;;;8.53;;
16878;SDS011;8556;52.218;9.884;2023-02-12T13:16:06;13.97;;;8.30;;
16878;SDS011;8556;52.218;9.884;2023-02-12T13:18:43;14.67;;;9.00;;
16878;SDS011;8556;52.218;9.884;2023-02-12T13:21:17;12.47;;;8.33;;
16878;SDS011;8556;52.218;9.884;2023-02-12T13:23:59;17.50;;;11.43;;
16878;SDS011;8556;52.218;9.884;2023-02-12T13:26:32;18.07;;;11.97;;
16878;SDS011;8556;52.218;9.884;2023-02-12T13:29:07;18.70;;;12.30;;
16878;SDS011;8556;52.218;9.884;2023-02-12T13:31:41;17.53;;;11.30;;
16878;SDS011;8556;52.218;9.884;2023-02-12T13:34:14;17.13;;;10.20;;
16878;SDS011;8556;52.218;9.884;2023-02-12T13:36:43;16.20;;;10.20;;
16878;SDS011;8556;52.218;9.884;2023-02-12T13:39:13;17.97;;;10.57;;
16878;SDS011;8556;52.218;9.884;2023-02-12T13:41:55;16.90;;;10.50;;
16878;SDS011;8556;52.218;9.884;2023-02-12T13:44:29;15.07;;;9.03;;
16878;SDS011;8556;52.218;9.884;2023-02-12T13:47:03;15.63;;;9.13;;
16878;SDS011;8556;52.218;9.884;2023-02-12T13:49:40;13.43;;;8.23;;
16878;SDS011;8556;52.218;9.884;2023-02-12T13:52:16;16.83;;;8.90;;
16878;SDS011;8556;52.218;9.884;2023-02-12T13:54:53;12.53;;;8.40;;
16878;SDS011;8556;52.218;9.884;2023-02-12T13:57:31;13.53;;;8.23;;
16878;SDS011;8556;52.218;9.884;2023-02-12T13:59:58;12.03;;;7.77;;
16878;SDS011;8556;52.218;9.884;2023-02-12T14:07:56;11.00;;;6.70;;
16878;SDS011;8556;52.218;9.884;2023-02-12T14:10:30;11.83;;;6.53;;
16878;SDS011;8556;52.218;9.884;2023-02-12T14:13:14;12.17;;;6.43;;
16878;SDS011;8556;52.218;9.884;2023-02-12T14:15:45;9.70;;;6.23;;
16878;SDS011;8556;52.218;9.884;2023-02-12T14:18:23;7.73;;;5.43;;
16878;SDS011;8556;52.218;9.884;2023-02-12T14:27:21;11.73;;;7.73;;
16878;SDS011;8556;52.218;9.884;2023-02-12T14:30:01;9.87;;;7.07;;
16878;SDS011;8556;52.218;9.884;2023-02-12T14:32:56;16.40;;;10.33;;
16878;SDS011;8556;52.218;9.884;2023-02-12T14:35:31;9.60;;;7.07;;
16878;SDS011;8556;52.218;9.884;2023-02-12T14:37:59;10.47;;;7.07;;
16878;SDS011;8556;52.218;9.884;2023-02-12T14:43:23;11.70;;;7.40;;
16878;SDS011;8556;52.218;9.884;2023-02-12T14:45:52;11.23;;;6.73;;
16878;SDS011;8556;52.218;9.884;2023-02-12T14:48:39;10.00;;;6.13;;
16878;SDS011;8556;52.218;9.884;2023-02-12T14:51:16;10.07;;;6.83;;
16878;SDS011;8556;52.218;9.884;2023-02-12T14:53:47;12.47;;;7.27;;
16878;SDS011;8556;52.218;9.884;2023-02-12T14:56:19;10.73;;;6.93;;
16878;SDS011;8556;52.218;9.884;2023-02-12T14:58:48;12.40;;;7.73;;
16878;SDS011;8556;52.218;9.884;2023-02-12T15:01:17;11.37;;;7.33;;
16878;SDS011;8556;52.218;9.884;2023-02-12T15:03:54;11.53;;;6.93;;
16878;SDS011;8556;52.218;9.884;2023-02-12T15:06:26;12.30;;;7.40;;
16878;SDS011;8556;52.218;9.884;2023-02-12T15:09:01;12.60;;;8.47;;
16878;SDS011;8556;52.218;9.884;2023-02-12T15:11:37;12.77;;;8.10;;
16878;SDS011;8556;52.218;9.884;2023-02-12T15:14:11;13.83;;;8.40;;
16878;SDS011;8556;52.218;9.884;2023-02-12T15:16:45;12.40;;;8.10;;
16878;SDS011;8556;52.218;9.884;2023-02-12T15:19:19;12.80;;;8.40;;
16878;SDS011;8556;52.218;9.884;2023-02-12T15:21:53;12.43;;;8.10;;
16878;SDS011;8556;52.218;9.884;2023-02-12T15:24:21;12.73;;;7.67;;
16878;SDS011;8556;52.218;9.884;2023-02-12T15:26:50;12.40;;;8.20;;
16878;SDS011;8556;52.218;9.884;2023-02-12T15:29:20;12.60;;;8.20;;
16878;SDS011;8556;52.218;9.884;2023-02-12T15:31:52;16.13;;;9.13;;
16878;SDS011;8556;52.218;9.884;2023-02-12T15:34:21;12.60;;;8.20;;
16878;SDS011;8556;52.218;9.884;2023-02-12T15:36:49;12.33;;;7.83;;
16878;SDS011;8556;52.218;9.884;2023-02-12T15:39:17;12.40;;;8.07;;
16878;SDS011;8556;52.218;9.884;2023-02-12T15:41:46;12.10;;;8.53;;